Time;durP1;ratioP1;P1;durP2;ratioP2;P2;SDS_P1;SDS_P2;PMS_P1;PMS_P2;Temp;Humidity;BMP_temperature;BMP_pressure;BME280_temperature;BME280_humidity;BME280_pressure;Samples;Min_cycle;Max_cycle;Signal;HPM_P1;HPM_P2
2021/07/15 00:00:05;;;;;;;;;;;;;;;21.30;80.60;97659.66;1775068;80;20265;-86
2021/07/15 00:02:33;;;;;;;;;;;;;;;21.27;80.65;97644.89;1774695;80;22815;-86
2021/07/15 00:05:01;;;;;;;;;;;;;;;21.37;80.72;97649.06;1779486;80;25884;-87
2021/07/15 00:07:37;;;;;;;;;;;;;;;21.39;80.75;97655.00;1771184;80;24548;-87
2021/07/15 00:10:13;;;;;;;;;;;;;;;21.36;80.76;97650.91;1775071;80;20244;-86
2021/07/15 00:12:40;;;;;;;;;;;;;;;21.36;80.78;97656.73;1771237;80;24983;-87
2021/07/15 00:15:07;;;;;;;;;;;;;;;21.35;80.78;97669.22;1746661;80;22119;-86
2021/07/15 00:17:42;;;;;;;;;;;;;;;21.33;80.79;97675.23;1779779;80;26569;-86
2021/07/15 00:20:11;;;;;;;;;;;;;;;21.30;80.79;97676.96;1771254;79;24475;-87
2021/07/15 00:22:37;;;;;;;;;;;;;;;21.29;80.80;97681.45;1772799;80;20287;-86
2021/07/15 00:25:14;;;;;;;;;;;;;;;21.23;80.84;97688.88;1769106;80;25253;-86
2021/07/15 00:27:42;;;;;;;;;;;;;;;21.20;80.86;97690.61;1776794;80;21936;-87
2021/07/15 00:30:10;;;;;;;;;;;;;;;21.15;80.90;97686.38;1774001;79;26567;-86
2021/07/15 00:32:36;;;;;;;;;;;;;;;21.14;80.94;97687.38;1737988;81;24371;-86
2021/07/15 00:35:04;;;;;;;;;;;;;;;21.19;80.96;97690.28;1775203;80;20471;-86
2021/07/15 00:37:31;;;;;;;;;;;;;;;21.22;81.01;97695.75;1777519;80;25082;-87
2021/07/15 00:39:57;;;;;;;;;;;;;;;21.27;81.06;97706.10;1769444;80;21965;-85
2021/07/15 00:42:23;;;;;;;;;;;;;;;21.29;81.10;97698.76;1779762;80;26039;-85
2021/07/15 00:44:49;;;;;;;;;;;;;;;21.25;81.13;97696.17;1776791;80;24598;-86
2021/07/15 00:47:15;;;;;;;;;;;;;;;21.22;81.10;97681.11;1766843;79;20494;-87
2021/07/15 00:49:43;;;;;;;;;;;;;;;21.13;81.13;97681.70;1745553;82;20238;-86
2021/07/15 00:52:11;;;;;;;;;;;;;;;21.13;81.16;97703.50;1747924;82;22146;-86
2021/07/15 00:54:40;;;;;;;;;;;;;;;21.28;81.22;97718.91;1736207;82;26126;-90
2021/07/15 00:57:27;;;;;;;;;;;;;;;21.26;81.30;97713.80;1741085;82;24518;-90
2021/07/15 00:59:53;;;;;;;;;;;;;;;21.11;81.29;97702.88;1742592;82;20437;-83
2021/07/15 01:02:19;;;;;;;;;;;;;;;21.02;81.32;97687.54;1736037;82;25026;-84
2021/07/15 01:04:47;;;;;;;;;;;;;;;20.93;81.35;97672.73;1743038;81;22744;-83
2021/07/15 01:07:13;;;;;;;;;;;;;;;20.84;81.39;97657.89;1746141;82;26155;-83
2021/07/15 01:09:39;;;;;;;;;;;;;;;20.73;81.45;97655.24;1741512;82;20277;-83
2021/07/15 01:12:13;;;;;;;;;;;;;;;20.72;81.56;97680.22;1745364;82;20844;-83
2021/07/15 01:14:41;;;;;;;;;;;;;;;20.79;81.65;97693.05;1747208;82;24959;-83
2021/07/15 01:17:08;;;;;;;;;;;;;;;20.92;81.74;97699.02;1748068;80;22043;-84
2021/07/15 01:19:39;;;;;;;;;;;;;;;21.03;81.82;97705.66;1748177;82;26638;-83
2021/07/15 01:22:17;;;;;;;;;;;;;;;21.02;81.86;97711.48;1742630;82;24471;-83
2021/07/15 01:25:03;;;;;;;;;;;;;;;20.98;81.91;97705.41;1746269;82;20348;-83
2021/07/15 01:27:31;;;;;;;;;;;;;;;20.97;81.94;97693.94;1745705;82;25057;-83
2021/07/15 01:30:15;;;;;;;;;;;;;;;21.05;82.00;97685.02;1744988;82;22695;-89
2021/07/15 01:32:52;;;;;;;;;;;;;;;21.11;82.03;97681.59;1715788;83;26695;-90
2021/07/15 01:35:34;;;;;;;;;;;;;;;21.19;82.06;97684.14;1737945;82;24527;-89
2021/07/15 01:38:07;;;;;;;;;;;;;;;21.15;82.05;97682.88;1747965;82;20231;-89
2021/07/15 01:40:38;;;;;;;;;;;;;;;21.10;82.03;97687.42;1747354;80;24927;-89
2021/07/15 01:43:06;;;;;;;;;;;;;;;21.04;82.05;97694.84;1746642;80;22042;-84
2021/07/15 01:45:32;;;;;;;;;;;;;;;21.02;82.07;97691.53;1747438;82;26189;-84
2021/07/15 01:48:02;;;;;;;;;;;;;;;21.10;82.09;97695.91;1752368;80;24770;-83
2021/07/15 01:50:29;;;;;;;;;;;;;;;21.23;82.11;97686.72;1757473;80;20214;-83
2021/07/15 01:52:55;;;;;;;;;;;;;;;21.25;82.12;97674.88;1764602;81;25078;-84
2021/07/15 01:55:21;;;;;;;;;;;;;;;21.23;82.13;97673.41;1761100;81;22557;-84
2021/07/15 01:57:48;;;;;;;;;;;;;;;21.28;82.15;97673.66;1761284;81;20905;-84
2021/07/15 02:00:14;;;;;;;;;;;;;;;21.29;82.15;97683.30;1763389;81;25137;-84
2021/07/15 02:02:41;;;;;;;;;;;;;;;21.13;82.15;97684.87;1763787;81;20240;-87
2021/07/15 02:05:09;;;;;;;;;;;;;;;20.99;82.14;97689.77;1762097;81;25059;-88
2021/07/15 02:07:38;;;;;;;;;;;;;;;20.85;82.18;97699.45;1752890;80;22223;-87
2021/07/15 02:10:13;;;;;;;;;;;;;;;20.77;82.18;97699.08;1763887;81;27009;-87
2021/07/15 02:12:39;;;;;;;;;;;;;;;20.72;82.23;97692.69;1761377;81;24449;-88
2021/07/15 02:15:06;;;;;;;;;;;;;;;20.72;82.29;97709.47;1761216;80;20604;-88
2021/07/15 02:17:40;;;;;;;;;;;;;;;20.85;82.35;97715.41;1759915;81;25002;-87
2021/07/15 02:20:08;;;;;;;;;;;;;;;20.90;82.43;97685.06;1762109;81;22018;-87
2021/07/15 02:22:33;;;;;;;;;;;;;;;20.79;82.48;97653.66;1758512;81;26053;-88
2021/07/15 02:25:00;;;;;;;;;;;;;;;20.64;82.54;97625.81;1734745;81;20880;-88
2021/07/15 02:27:29;;;;;;;;;;;;;;;20.45;82.63;97596.71;1762807;81;20339;-87
2021/07/15 02:29:55;;;;;;;;;;;;;;;20.38;82.68;97613.09;1760677;81;24966;-88
2021/07/15 02:32:21;;;;;;;;;;;;;;;20.48;82.82;97609.28;1762616;80;22056;-88
2021/07/15 02:34:52;;;;;;;;;;;;;;;20.60;82.94;97606.45;1767806;80;25960;-88
2021/07/15 02:37:20;;;;;;;;;;;;;;;20.68;83.05;97619.59;1759786;80;24512;-87
2021/07/15 02:39:46;;;;;;;;;;;;;;;20.66;83.16;97626.45;1762110;81;20314;-87
2021/07/15 02:42:11;;;;;;;;;;;;;;;20.74;83.23;97630.80;1761582;81;20817;-88
2021/07/15 02:44:45;;;;;;;;;;;;;;;20.80;83.29;97639.36;1763413;81;21182;-89
2021/07/15 02:47:13;;;;;;;;;;;;;;;20.79;83.33;97645.17;1762053;80;26945;-91
2021/07/15 02:49:40;;;;;;;;;;;;;;;20.74;83.35;97648.09;1771445;79;24161;-89
2021/07/15 02:52:07;;;;;;;;;;;;;;;20.68;83.41;97668.28;1766158;80;20313;-89
2021/07/15 02:54:40;;;;;;;;;;;;;;;20.65;83.43;97684.63;1766841;80;24955;-89
2021/07/15 02:57:29;;;;;;;;;;;;;;;20.66;83.48;97690.77;1771460;80;22240;-89
2021/07/15 03:02:49;;;;;;;;;;;;;;;20.78;83.54;97695.92;1769785;80;24409;-89
2021/07/15 03:05:27;;;;;;;;;;;;;;;20.73;83.59;97696.45;1764631;80;20198;-91
2021/07/15 03:07:58;;;;;;;;;;;;;;;20.71;83.61;97687.87;1767134;80;25070;-91
2021/07/15 03:10:32;;;;;;;;;;;;;;;20.73;83.66;97694.34;1767304;80;22012;-90
2021/07/15 03:12:58;;;;;;;;;;;;;;;20.79;83.66;97704.19;1768072;80;26687;-87
2021/07/15 03:15:25;;;;;;;;;;;;;;;20.85;83.68;97701.60;1764692;80;20813;-87
2021/07/15 03:17:52;;;;;;;;;;;;;;;20.75;83.68;97698.44;1771922;80;20237;-87
2021/07/15 03:20:23;;;;;;;;;;;;;;;20.64;83.64;97690.95;1769427;81;25099;-88
2021/07/15 03:22:51;;;;;;;;;;;;;;;20.68;83.64;97692.22;1732835;82;22060;-88
2021/07/15 03:25:18;;;;;;;;;;;;;;;20.80;83.64;97685.89;1767403;79;26226;-87
2021/07/15 03:27:46;;;;;;;;;;;;;;;20.91;83.64;97684.56;1770642;80;24439;-88
2021/07/15 03:30:14;;;;;;;;;;;;;;;20.94;83.64;97686.36;1765589;79;20164;-88
2021/07/15 03:32:43;;;;;;;;;;;;;;;20.85;83.62;97686.14;1771371;80;25575;-87
2021/07/15 03:35:15;;;;;;;;;;;;;;;20.87;83.60;97696.93;1768778;79;22041;-87
2021/07/15 03:37:43;;;;;;;;;;;;;;;20.91;83.57;97692.04;1698751;84;25659;-88
2021/07/15 03:40:15;;;;;;;;;;;;;;;20.83;83.57;97706.31;1694688;84;24461;-87
2021/07/15 03:42:41;;;;;;;;;;;;;;;20.91;83.54;97710.66;1778098;79;20579;-88
2021/07/15 03:45:08;;;;;;;;;;;;;;;20.88;83.52;97717.70;1769586;80;20771;-88
2021/07/15 03:47:35;;;;;;;;;;;;;;;20.74;83.46;97713.24;1763964;80;22067;-88
2021/07/15 03:50:06;;;;;;;;;;;;;;;20.63;83.42;97712.41;1747340;82;26151;-88
2021/07/15 03:52:38;;;;;;;;;;;;;;;20.57;83.40;97712.65;1744823;82;24504;-88
2021/07/15 03:55:05;;;;;;;;;;;;;;;20.62;83.43;97710.25;1750291;82;20269;-88
2021/07/15 03:57:31;;;;;;;;;;;;;;;20.67;83.44;97714.53;1743493;82;25028;-88
2021/07/15 04:00:03;;;;;;;;;;;;;;;20.59;83.41;97717.28;1743821;82;22010;-88
2021/07/15 04:02:30;;;;;;;;;;;;;;;20.50;83.42;97708.28;1745320;82;26013;-88
2021/07/15 04:04:59;;;;;;;;;;;;;;;20.46;83.42;97704.66;1748381;82;24094;-88
2021/07/15 04:07:27;;;;;;;;;;;;;;;20.46;83.48;97699.34;1746282;82;20248;-88
2021/07/15 04:09:54;;;;;;;;;;;;;;;20.50;83.54;97688.35;1748731;80;24409;-88
2021/07/15 04:12:32;;;;;;;;;;;;;;;20.56;83.62;97694.25;1748845;80;21404;-88
2021/07/15 04:14:57;;;;;;;;;;;;;;;20.67;83.75;97697.75;1747285;82;26084;-87
2021/07/15 04:17:25;;;;;;;;;;;;;;;20.87;83.87;97690.78;1746928;82;25269;-88
2021/07/15 04:19:52;;;;;;;;;;;;;;;21.13;83.95;97680.88;1747603;82;20301;-87
2021/07/15 04:22:22;;;;;;;;;;;;;;;21.33;83.99;97675.77;1715838;82;41379;-87
2021/07/15 04:24:48;;;;;;;;;;;;;;;21.49;84.00;97680.80;1743095;82;22115;-88
2021/07/15 04:27:16;;;;;;;;;;;;;;;21.58;84.00;97681.78;1750726;82;26023;-88
2021/07/15 04:29:48;;;;;;;;;;;;;;;21.65;83.98;97690.64;1747551;82;24418;-88
2021/07/15 04:32:33;;;;;;;;;;;;;;;21.69;83.90;97701.21;1739107;82;20465;-87
2021/07/15 04:35:00;;;;;;;;;;;;;;;21.70;83.77;97699.37;1749874;82;25124;-87
2021/07/15 04:37:26;;;;;;;;;;;;;;;21.71;83.65;97702.36;1745240;82;22070;-87
2021/07/15 04:39:54;;;;;;;;;;;;;;;21.68;83.56;97710.72;1745262;82;25987;-87
2021/07/15 04:42:24;;;;;;;;;;;;;;;21.67;83.45;97709.89;1746535;82;24618;-87
2021/07/15 04:44:57;;;;;;;;;;;;;;;21.68;83.34;97709.39;1745097;82;20474;-87
2021/07/15 04:47:24;;;;;;;;;;;;;;;21.64;83.25;97698.31;1747612;82;25583;-87
2021/07/15 04:49:57;;;;;;;;;;;;;;;21.49;83.17;97712.75;1738697;80;22098;-87
2021/07/15 04:52:24;;;;;;;;;;;;;;;21.35;83.13;97721.63;1772002;80;26066;-87
2021/07/15 04:54:50;;;;;;;;;;;;;;;21.21;83.09;97721.53;1771310;79;24528;-87
2021/07/15 04:57:17;;;;;;;;;;;;;;;21.06;83.06;97714.07;1774879;80;20574;-87
2021/07/15 04:59:45;;;;;;;;;;;;;;;20.99;83.05;97733.66;1773853;80;24987;-87
2021/07/15 05:02:11;;;;;;;;;;;;;;;20.94;83.06;97730.25;1772911;80;22023;-87
2021/07/15 05:04:37;;;;;;;;;;;;;;;20.90;83.12;97722.31;1773462;79;20978;-87
2021/07/15 05:07:04;;;;;;;;;;;;;;;20.89;83.17;97725.47;1771649;80;24499;-87
2021/07/15 05:09:33;;;;;;;;;;;;;;;21.01;83.23;97713.00;1773252;80;20272;-87
2021/07/15 05:12:06;;;;;;;;;;;;;;;21.00;83.31;97715.37;1771388;80;25008;-87
2021/07/15 05:14:31;;;;;;;;;;;;;;;21.03;83.33;97713.64;1770609;80;22078;-88
2021/07/15 05:17:04;;;;;;;;;;;;;;;21.21;83.43;97716.72;1773118;80;25900;-87
2021/07/15 05:19:42;;;;;;;;;;;;;;;;;;;;;
2021/07/15 05:22:03;;;;;;;;;;;;;;;21.47;83.54;97721.42;1691025;82;20284;-87
2021/07/15 05:24:29;;;;;;;;;;;;;;;21.57;83.61;97713.92;1752261;80;25039;-87
2021/07/15 05:26:55;;;;;;;;;;;;;;;21.58;83.67;97702.25;1716471;83;20299;-87
2021/07/15 05:29:22;;;;;;;;;;;;;;;21.53;83.66;97710.00;1714628;82;25951;-87
2021/07/15 05:31:48;;;;;;;;;;;;;;;21.53;83.72;97711.34;1738177;82;24386;-87
2021/07/15 05:34:17;;;;;;;;;;;;;;;21.49;83.74;97714.08;1715995;82;20208;-87
2021/07/15 05:36:43;;;;;;;;;;;;;;;21.47;83.80;97718.77;1712880;83;25119;-87
2021/07/15 05:39:10;;;;;;;;;;;;;;;21.46;83.84;97711.28;1716882;83;22095;-87
2021/07/15 05:41:36;;;;;;;;;;;;;;;21.50;83.92;97712.53;1736939;82;26118;-87
2021/07/15 05:44:02;;;;;;;;;;;;;;;21.57;84.00;97715.25;1714869;83;20275;-87
2021/07/15 05:46:28;;;;;;;;;;;;;;;21.68;84.08;97726.70;1714240;83;20320;-87
2021/07/15 05:48:54;;;;;;;;;;;;;;;21.80;84.20;97721.16;1703717;83;20753;-87
2021/07/15 05:51:21;;;;;;;;;;;;;;;21.99;84.27;97732.46;1697254;84;20209;-86
2021/07/15 05:53:50;;;;;;;;;;;;;;;22.16;84.29;97727.63;1726226;83;27026;-87
2021/07/15 05:56:23;;;;;;;;;;;;;;;22.25;84.27;97733.64;1727948;81;25421;-87
2021/07/15 05:58:55;;;;;;;;;;;;;;;22.36;84.22;97745.08;1727923;83;20239;-87
2021/07/15 06:01:21;;;;;;;;;;;;;;;22.39;84.18;97756.66;1727352;82;24994;-86
2021/07/15 06:03:47;;;;;;;;;;;;;;;22.39;84.14;97763.33;1727035;82;21985;-87
2021/07/15 06:06:14;;;;;;;;;;;;;;;22.32;84.10;97764.62;1700397;84;26019;-87
2021/07/15 06:08:40;;;;;;;;;;;;;;;22.33;84.10;97772.94;1705322;84;24405;-87
2021/07/15 06:11:08;;;;;;;;;;;;;;;22.32;84.09;97781.13;1695978;84;20213;-87
2021/07/15 06:13:34;;;;;;;;;;;;;;;22.35;84.06;97784.75;1695902;82;25167;-87
2021/07/15 06:16:00;;;;;;;;;;;;;;;22.33;84.05;97790.78;1699909;84;21936;-86
2021/07/15 06:18:26;;;;;;;;;;;;;;;22.30;84.04;97801.34;1696506;84;25976;-87
2021/07/15 06:20:52;;;;;;;;;;;;;;;22.30;84.04;97811.18;1698204;84;21049;-87
2021/07/15 06:23:18;;;;;;;;;;;;;;;22.28;84.08;97811.37;1700725;84;20237;-86
2021/07/15 06:25:44;;;;;;;;;;;;;;;22.29;84.09;97795.69;1696875;84;20312;-87
2021/07/15 06:28:10;;;;;;;;;;;;;;;22.25;84.10;97798.44;1701533;84;22029;-87
2021/07/15 06:30:36;;;;;;;;;;;;;;;22.30;84.12;97796.52;1700252;84;21145;-87
2021/07/15 06:33:02;;;;;;;;;;;;;;;22.40;84.18;97794.31;1704204;84;24436;-87
2021/07/15 06:35:28;;;;;;;;;;;;;;;22.46;84.20;97787.69;1704169;84;20246;-87
2021/07/15 06:37:54;;;;;;;;;;;;;;;22.53;84.20;97780.52;1698355;84;25113;-87
2021/07/15 06:40:23;;;;;;;;;;;;;;;22.53;84.21;97774.36;1699313;84;21451;-87
2021/07/15 06:42:49;;;;;;;;;;;;;;;22.49;84.25;97775.78;1763719;80;26044;-87
2021/07/15 06:45:20;;;;;;;;;;;;;;;22.40;84.25;97786.31;1765670;80;24405;-87
2021/07/15 06:47:44;;;;;;;;;;;;;;;22.32;84.24;97783.80;1764094;80;20214;-87
2021/07/15 06:50:11;;;;;;;;;;;;;;;22.28;84.25;97782.55;1766777;80;25007;-87
2021/07/15 06:52:43;;;;;;;;;;;;;;;22.24;84.31;97781.30;1764278;81;21974;-87
2021/07/15 06:55:10;;;;;;;;;;;;;;;22.23;84.41;97776.48;1761965;81;26161;-87
2021/07/15 06:57:37;;;;;;;;;;;;;;;22.26;84.50;97765.91;1764142;81;25533;-87
2021/07/15 07:00:08;;;;;;;;;;;;;;;22.32;84.63;97753.96;1733486;81;20139;-87
2021/07/15 07:02:36;;;;;;;;;;;;;;;22.41;84.75;97747.97;1761298;81;25078;-87
2021/07/15 07:05:03;;;;;;;;;;;;;;;22.46;84.81;97749.02;1761555;81;22079;-87
2021/07/15 07:07:29;;;;;;;;;;;;;;;22.59;84.83;97745.56;1763718;81;26047;-86
2021/07/15 07:09:57;;;;;;;;;;;;;;;22.66;84.92;97762.42;1761251;81;20849;-87
2021/07/15 07:12:24;;;;;;;;;;;;;;;22.71;84.92;97760.00;1757950;81;20315;-87
2021/07/15 07:14:52;;;;;;;;;;;;;;;22.77;84.90;97753.87;1762229;81;25019;-87
2021/07/15 07:17:19;;;;;;;;;;;;;;;22.99;84.96;97756.39;1764003;81;21988;-87
2021/07/15 07:19:48;;;;;;;;;;;;;;;23.14;85.01;97755.69;1760421;81;26709;-87
2021/07/15 07:22:14;;;;;;;;;;;;;;;23.17;84.99;97756.12;1758651;81;25358;-87
2021/07/15 07:24:40;;;;;;;;;;;;;;;23.19;84.96;97756.73;1730678;82;20480;-87
2021/07/15 07:27:06;;;;;;;;;;;;;;;23.21;84.94;97758.69;1718225;82;20266;-87
2021/07/15 07:29:32;;;;;;;;;;;;;;;23.25;84.91;97761.25;1729849;83;20331;-88
2021/07/15 07:32:03;;;;;;;;;;;;;;;23.29;84.90;97764.36;1779267;79;21920;-88
2021/07/15 07:34:30;;;;;;;;;;;;;;;23.25;84.77;97772.45;1756529;81;24773;-89
2021/07/15 07:36:56;;;;;;;;;;;;;;;23.21;84.65;97773.38;1735928;81;20211;-90
2021/07/15 07:39:29;;;;;;;;;;;;;;;23.27;84.55;97774.41;1751436;81;24992;-90
2021/07/15 07:41:58;;;;;;;;;;;;;;;23.36;84.55;97777.19;1760038;81;22062;-89
2021/07/15 07:44:25;;;;;;;;;;;;;;;23.44;84.57;97775.67;1766066;81;26729;-89
2021/07/15 07:46:56;;;;;;;;;;;;;;;23.47;84.53;97781.13;1757598;81;24479;-89
2021/07/15 07:49:23;;;;;;;;;;;;;;;23.60;84.56;97779.81;1762699;79;20305;-89
2021/07/15 07:51:55;;;;;;;;;;;;;;;23.81;84.65;97785.45;1765556;80;25050;-89
2021/07/15 07:54:27;;;;;;;;;;;;;;;23.91;84.69;97793.36;1760876;81;22006;-89
2021/07/15 07:56:57;;;;;;;;;;;;;;;23.95;84.68;97799.92;1753146;81;26048;-89
2021/07/15 07:59:29;;;;;;;;;;;;;;;24.03;84.61;97794.89;1760445;81;25214;-86
2021/07/15 08:01:55;;;;;;;;;;;;;;;24.05;84.53;97807.55;1760432;80;20227;-87
2021/07/15 08:04:22;;;;;;;;;;;;;;;24.06;84.43;97815.34;1758415;81;20336;-89
2021/07/15 08:06:54;;;;;;;;;;;;;;;24.06;84.27;97820.69;1763401;81;22175;-89
2021/07/15 08:09:23;;;;;;;;;;;;;;;24.11;84.17;97827.56;1764942;81;26054;-89
2021/07/15 08:11:55;;;;;;;;;;;;;;;24.14;84.17;97833.03;1764059;81;24469;-89
2021/07/15 08:14:22;;;;;;;;;;;;;;;24.07;84.00;97833.03;1759833;81;20359;-89
2021/07/15 08:16:54;;;;;;;;;;;;;;;24.02;83.85;97840.02;1761737;81;25108;-89
2021/07/15 08:19:20;;;;;;;;;;;;;;;24.04;83.71;97836.64;1762626;81;22005;-88
2021/07/15 08:21:47;;;;;;;;;;;;;;;24.06;83.64;97839.91;1761413;81;25967;-88
2021/07/15 08:24:13;;;;;;;;;;;;;;;24.12;83.56;97839.91;1763262;80;24615;-89
2021/07/15 08:26:39;;;;;;;;;;;;;;;24.21;83.51;97836.55;1759685;81;20592;-89
2021/07/15 08:29:05;;;;;;;;;;;;;;;24.35;83.48;97831.99;1761336;81;25568;-89
2021/07/15 08:31:31;;;;;;;;;;;;;;;24.34;83.42;97831.17;1764219;81;21962;-84
2021/07/15 08:33:57;;;;;;;;;;;;;;;24.31;83.28;97826.77;1736438;81;25848;-84
2021/07/15 08:36:25;;;;;;;;;;;;;;;24.30;83.13;97835.30;1762568;80;24524;-84
2021/07/15 08:38:51;;;;;;;;;;;;;;;24.27;83.01;97847.77;1759491;81;20269;-84
2021/07/15 08:41:17;;;;;;;;;;;;;;;24.20;82.90;97832.23;1763103;80;25024;-84
2021/07/15 08:43:44;;;;;;;;;;;;;;;24.21;82.77;97844.58;1760534;81;20895;-84
2021/07/15 08:46:11;;;;;;;;;;;;;;;24.17;82.57;97848.16;1762628;79;26066;-89
2021/07/15 08:48:39;;;;;;;;;;;;;;;24.30;82.53;97851.34;1759919;81;24449;-89
2021/07/15 08:51:05;;;;;;;;;;;;;;;24.44;82.53;97849.45;1761254;80;20642;-89
2021/07/15 08:53:32;;;;;;;;;;;;;;;24.57;82.58;97846.25;1761585;80;20546;-89
2021/07/15 08:58:46;;;;;;;;;;;;;;;24.67;82.38;97849.81;1760600;80;26094;-89
2021/07/15 09:01:13;;;;;;;;;;;;;;;24.72;82.19;97846.50;1761001;81;24488;-84
2021/07/15 09:03:39;;;;;;;;;;;;;;;24.73;81.98;97840.12;1760013;81;20240;-84
2021/07/15 09:06:05;;;;;;;;;;;;;;;24.72;81.83;97842.48;1761019;80;25071;-85
2021/07/15 09:08:31;;;;;;;;;;;;;;;24.65;81.52;97841.70;1761702;81;21942;-85
2021/07/15 09:10:58;;;;;;;;;;;;;;;24.55;81.24;97838.93;1760303;81;25929;-85
2021/07/15 09:13:24;;;;;;;;;;;;;;;24.51;81.04;97844.92;1759682;81;24455;-85
2021/07/15 09:15:51;;;;;;;;;;;;;;;24.54;80.94;97844.52;1762662;81;20288;-85
2021/07/15 09:18:18;;;;;;;;;;;;;;;24.70;80.92;97841.89;1762881;81;25674;-85
2021/07/15 09:20:45;;;;;;;;;;;;;;;24.82;80.91;97835.65;1760438;81;22219;-85
2021/07/15 09:23:12;;;;;;;;;;;;;;;24.89;80.80;97835.66;1762418;81;26025;-86
2021/07/15 09:25:43;;;;;;;;;;;;;;;24.97;80.69;97837.59;1762249;81;24512;-84
2021/07/15 09:28:13;;;;;;;;;;;;;;;25.06;80.50;97840.84;1705180;82;20253;-85
2021/07/15 09:30:41;;;;;;;;;;;;;;;25.19;80.32;97842.64;1714229;83;24981;-84
2021/07/15 09:33:08;;;;;;;;;;;;;;;25.35;80.20;97844.30;1728661;83;22931;-84
2021/07/15 09:35:42;;;;;;;;;;;;;;;25.47;80.09;97848.45;1728741;83;26313;-85
2021/07/15 09:38:21;;;;;;;;;;;;;;;25.58;79.99;97853.16;1706138;83;24024;-85
2021/07/15 09:40:51;;;;;;;;;;;;;;;25.60;79.86;97855.60;1726492;83;20297;-84
2021/07/15 09:43:18;;;;;;;;;;;;;;;25.58;79.71;97858.52;1725055;82;25101;-87
2021/07/15 09:45:45;;;;;;;;;;;;;;;25.47;79.49;97854.33;1712081;82;22059;-88
2021/07/15 09:48:12;;;;;;;;;;;;;;;25.47;79.33;97855.67;1696490;84;26226;-88
2021/07/15 09:50:39;;;;;;;;;;;;;;;25.61;79.31;97859.93;1709755;83;24499;-87
2021/07/15 09:53:15;;;;;;;;;;;;;;;25.71;79.27;97853.56;1711652;83;20305;-84
2021/07/15 09:55:41;;;;;;;;;;;;;;;25.75;79.19;97853.42;1705723;82;25824;-84
2021/07/15 09:58:11;;;;;;;;;;;;;;;25.72;79.04;97847.17;1712348;82;20882;-84
2021/07/15 10:00:41;;;;;;;;;;;;;;;25.70;78.88;97854.59;1739024;81;26145;-84
2021/07/15 10:03:09;;;;;;;;;;;;;;;25.78;78.84;97850.33;1708828;82;24528;-84
2021/07/15 10:05:35;;;;;;;;;;;;;;;25.75;78.66;97842.19;1706109;83;20482;-84
2021/07/15 10:08:09;;;;;;;;;;;;;;;25.74;78.54;97850.47;1705053;83;25010;-84
2021/07/15 10:10:36;;;;;;;;;;;;;;;25.76;78.45;97849.20;1706974;83;21952;-84
2021/07/15 10:13:21;;;;;;;;;;;;;;;25.76;78.30;97837.13;1698367;82;25956;-84
2021/07/15 10:15:48;;;;;;;;;;;;;;;25.75;78.18;97842.70;1724931;81;24624;-84
2021/07/15 10:18:29;;;;;;;;;;;;;;;25.61;77.91;97842.51;1717596;82;20618;-87
2021/07/15 10:20:56;;;;;;;;;;;;;;;25.61;77.72;97827.77;1699314;82;25191;-87
2021/07/15 10:23:35;;;;;;;;;;;;;;;25.60;77.60;97824.78;1715381;83;21777;-88
2021/07/15 10:26:02;;;;;;;;;;;;;;;25.57;77.47;97835.95;1695593;84;26154;-87
2021/07/15 10:28:29;;;;;;;;;;;;;;;25.56;77.36;97829.77;1711281;83;24609;-87
2021/07/15 10:30:57;;;;;;;;;;;;;;;25.51;77.24;97833.58;1728177;83;20534;-87
2021/07/15 10:33:24;;;;;;;;;;;;;;;25.52;77.13;97830.39;1691538;84;25046;-88
2021/07/15 10:35:51;;;;;;;;;;;;;;;25.56;77.11;97832.96;1706398;83;21929;-87
2021/07/15 10:38:19;;;;;;;;;;;;;;;25.60;77.06;97826.95;1703076;83;25970;-87
2021/07/15 10:40:45;;;;;;;;;;;;;;;25.65;77.00;97832.47;1706617;83;24696;-86
2021/07/15 10:43:11;;;;;;;;;;;;;;;25.77;77.00;97846.82;1704056;83;20631;-87
2021/07/15 10:45:40;;;;;;;;;;;;;;;25.86;77.03;97841.20;1704527;83;25045;-87
2021/07/15 10:48:07;;;;;;;;;;;;;;;25.93;77.02;97840.09;1707275;83;20174;-87
2021/07/15 10:50:32;;;;;;;;;;;;;;;26.01;77.01;97830.97;1709611;83;25808;-86
2021/07/15 10:53:00;;;;;;;;;;;;;;;26.07;76.95;97837.62;1709163;83;20244;-87
2021/07/15 10:55:26;;;;;;;;;;;;;;;26.11;76.79;97832.62;1700362;83;20228;-87
2021/07/15 10:57:52;;;;;;;;;;;;;;;26.15;76.62;97832.47;1702770;83;25025;-86
2021/07/15 11:00:23;;;;;;;;;;;;;;;26.19;76.34;97829.64;1700052;83;21936;-87
2021/07/15 11:03:09;;;;;;;;;;;;;;;26.32;76.18;97831.42;1699677;82;27006;-87
2021/07/15 11:05:49;;;;;;;;;;;;;;;26.52;76.06;97830.16;1725762;83;23805;-87
2021/07/15 11:08:16;;;;;;;;;;;;;;;26.76;75.93;97828.45;1703784;82;20307;-88
2021/07/15 11:10:45;;;;;;;;;;;;;;;26.94;75.82;97827.66;1709305;83;25016;-88
2021/07/15 11:13:11;;;;;;;;;;;;;;;26.92;75.48;97825.71;1700062;82;22069;-88
2021/07/15 11:15:48;;;;;;;;;;;;;;;26.88;75.25;97819.98;1701224;84;21216;-87
2021/07/15 11:18:35;;;;;;;;;;;;;;;26.84;74.96;97821.97;1705728;84;25170;-88
2021/07/15 11:21:20;;;;;;;;;;;;;;;26.82;74.75;97816.82;1708244;84;20258;-87
2021/07/15 11:23:46;;;;;;;;;;;;;;;26.74;74.41;97813.60;1707262;82;25130;-87
2021/07/15 11:26:28;;;;;;;;;;;;;;;26.59;73.89;97809.97;1704861;84;21964;-87
2021/07/15 11:28:55;;;;;;;;;;;;;;;26.52;73.57;97804.66;1707639;82;25983;-87
2021/07/15 11:31:40;;;;;;;;;;;;;;;26.47;73.32;97805.03;1705515;84;24460;-87
2021/07/15 11:34:06;;;;;;;;;;;;;;;26.49;73.22;97798.42;1706376;84;20277;-87
2021/07/15 11:36:32;;;;;;;;;;;;;;;26.53;73.17;97787.52;1707363;83;20776;-88
2021/07/15 11:39:08;;;;;;;;;;;;;;;26.66;73.20;97790.58;1707823;84;21971;-88
2021/07/15 11:41:46;;;;;;;;;;;;;;;26.73;73.10;97789.16;1681618;83;26002;-87
2021/07/15 11:44:13;;;;;;;;;;;;;;;26.86;73.09;97788.46;1705995;84;24421;-87
2021/07/15 11:46:43;;;;;;;;;;;;;;;26.94;72.95;97794.09;1709650;84;20218;-87
2021/07/15 11:49:12;;;;;;;;;;;;;;;26.98;72.65;97784.52;1700063;84;25010;-87
2021/07/15 11:51:43;;;;;;;;;;;;;;;27.02;72.41;97789.20;1709022;83;22095;-85
2021/07/15 11:54:17;;;;;;;;;;;;;;;27.06;72.27;97789.04;1713926;83;25658;-88
2021/07/15 11:56:44;;;;;;;;;;;;;;;27.10;72.13;97789.42;1712389;83;24581;-88
2021/07/15 11:59:10;;;;;;;;;;;;;;;27.06;71.88;97789.04;1705257;82;20182;-88
2021/07/15 12:01:37;;;;;;;;;;;;;;;27.03;71.71;97788.16;1702191;83;25914;-89
2021/07/15 12:04:07;;;;;;;;;;;;;;;27.20;71.72;97788.34;1704246;83;22143;-88
2021/07/15 12:06:35;;;;;;;;;;;;;;;27.38;71.77;97782.92;1692934;83;26692;-88
2021/07/15 12:09:05;;;;;;;;;;;;;;;27.54;71.73;97785.50;1707908;83;25216;-88
2021/07/15 12:11:32;;;;;;;;;;;;;;;27.75;71.73;97780.09;1706790;83;20498;-88
2021/07/15 12:14:01;;;;;;;;;;;;;;;27.82;71.49;97784.28;1706155;83;20190;-88
2021/07/15 12:16:28;;;;;;;;;;;;;;;27.77;71.07;97785.52;1707162;82;22085;-88
2021/07/15 12:18:55;;;;;;;;;;;;;;;27.68;70.64;97790.13;1709912;83;26134;-88
2021/07/15 12:21:22;;;;;;;;;;;;;;;27.49;70.13;97784.00;1708244;83;24635;-87
2021/07/15 12:23:52;;;;;;;;;;;;;;;27.23;69.58;97782.50;1709533;83;20296;-87
2021/07/15 12:26:19;;;;;;;;;;;;;;;27.02;69.15;97790.55;1702801;82;25528;-88
2021/07/15 12:28:46;;;;;;;;;;;;;;;26.96;68.93;97787.95;1707832;83;22639;-88
2021/07/15 12:31:20;;;;;;;;;;;;;;;26.93;68.84;97784.39;1709539;83;26970;-89
2021/07/15 12:33:53;;;;;;;;;;;;;;;26.91;68.72;97789.98;1712958;83;24597;-88
2021/07/15 12:36:23;;;;;;;;;;;;;;;26.98;68.75;97784.00;1707263;83;20217;-90
2021/07/15 12:38:53;;;;;;;;;;;;;;;27.14;68.82;97777.69;1709057;83;24983;-84
2021/07/15 12:41:22;;;;;;;;;;;;;;;27.11;68.67;97780.84;1710973;82;21592;-87
2021/07/15 12:43:49;;;;;;;;;;;;;;;27.20;68.54;97775.44;1713123;83;26063;-87
2021/07/15 12:46:17;;;;;;;;;;;;;;;27.22;68.29;97781.41;1708238;83;25100;-86
2021/07/15 12:48:45;;;;;;;;;;;;;;;27.30;68.17;97783.76;1709460;83;20226;-86
2021/07/15 12:51:14;;;;;;;;;;;;;;;27.36;67.90;97778.81;1699719;83;20195;-86
2021/07/15 12:53:43;;;;;;;;;;;;;;;27.48;67.75;97774.29;1694250;83;21999;-87
2021/07/15 12:56:09;;;;;;;;;;;;;;;27.47;67.52;97779.36;1703641;83;26024;-87
2021/07/15 12:58:36;;;;;;;;;;;;;;;27.39;67.29;97779.16;1703188;83;24448;-87
2021/07/15 13:01:03;;;;;;;;;;;;;;;27.30;67.03;97777.86;1700949;82;20612;-88